createdAt,value
2022-11-08T00:01:41.513Z,13.50
2022-11-08T00:04:16.599Z,16.77
2022-11-08T00:07:07.857Z,15.30
2022-11-08T00:09:58.681Z,15.98
2022-11-08T00:12:49.548Z,17.50
2022-11-08T00:15:22.915Z,16.37
2022-11-08T00:17:57.147Z,16.00
2022-11-08T00:20:30.191Z,14.73
2022-11-08T00:23:04.759Z,14.83
2022-11-08T00:25:38.003Z,14.73
2022-11-08T00:28:11.498Z,13.53
2022-11-08T00:30:44.844Z,14.93
2022-11-08T00:33:18.316Z,15.20
2022-11-08T00:35:51.829Z,13.08
2022-11-08T00:38:25.318Z,16.15
2022-11-08T00:40:58.696Z,15.43
2022-11-08T00:43:31.967Z,15.43
2022-11-08T00:46:05.292Z,12.73
2022-11-08T00:48:39.032Z,16.27
2022-11-08T00:51:13.993Z,16.52
2022-11-08T00:53:47.438Z,11.65
2022-11-08T00:56:20.573Z,12.63
2022-11-08T00:58:53.972Z,13.83
2022-11-08T01:01:27.587Z,12.75
2022-11-08T01:04:01.274Z,16.75
2022-11-08T01:06:34.728Z,15.80
2022-11-08T01:09:09.105Z,10.13
2022-11-08T01:11:44.705Z,13.40
2022-11-08T01:14:18.281Z,17.40
2022-11-08T01:16:52.490Z,13.25
2022-11-08T01:19:26.006Z,15.25
2022-11-08T01:21:59.530Z,15.70
2022-11-08T01:24:33.118Z,17.27
2022-11-08T01:27:06.706Z,13.35
2022-11-08T01:29:40.240Z,15.58
2022-11-08T01:32:13.646Z,13.78
2022-11-08T01:34:47.203Z,12.73
2022-11-08T01:37:20.602Z,13.40
2022-11-08T01:39:54.261Z,15.25
2022-11-08T01:42:31.616Z,16.80
2022-11-08T01:45:06.834Z,14.25
2022-11-08T01:47:40.656Z,17.05
2022-11-08T01:50:16.885Z,17.85
2022-11-08T01:52:53.003Z,18.90
2022-11-08T01:55:29.418Z,17.48
2022-11-08T01:58:05.441Z,17.57
2022-11-08T02:00:41.151Z,17.95
2022-11-08T02:03:16.954Z,13.60
2022-11-08T02:05:50.555Z,15.53
2022-11-08T02:08:26.830Z,15.05
2022-11-08T02:11:00.750Z,13.90
2022-11-08T02:13:36.229Z,13.80
2022-11-08T02:16:15.693Z,15.50
2022-11-08T02:18:50.749Z,16.23
2022-11-08T02:21:26.879Z,16.42
2022-11-08T02:24:02.829Z,13.88
2022-11-08T02:26:37.368Z,16.42
2022-11-08T02:29:28.049Z,12.93
2022-11-08T02:32:03.403Z,12.05
2022-11-08T02:34:39.366Z,15.88
2022-11-08T02:37:15.410Z,15.30
2022-11-08T02:39:52.368Z,15.58
2022-11-08T02:42:26.067Z,13.83
2022-11-08T02:44:59.566Z,15.88
2022-11-08T02:47:33.789Z,16.67
2022-11-08T02:50:08.824Z,14.83
2022-11-08T02:52:42.323Z,14.68
2022-11-08T02:55:15.885Z,17.20
2022-11-08T02:57:49.271Z,13.05
2022-11-08T03:00:23.318Z,15.88
2022-11-08T03:02:57.592Z,15.25
2022-11-08T03:05:32.329Z,14.75
2022-11-08T03:08:06.416Z,14.80
2022-11-08T03:10:39.613Z,17.62
2022-11-08T03:13:13.267Z,14.30
2022-11-08T03:15:46.821Z,16.40
2022-11-08T03:18:21.190Z,17.73
2022-11-08T03:20:55.298Z,16.40
2022-11-08T03:23:29.210Z,18.20
2022-11-08T03:26:04.532Z,15.03
2022-11-08T03:28:38.228Z,13.72
2022-11-08T03:31:11.951Z,13.68
2022-11-08T03:33:45.602Z,12.37
2022-11-08T03:36:19.181Z,16.85
2022-11-08T03:38:52.945Z,16.20
2022-11-08T03:41:26.725Z,13.05
2022-11-08T03:44:00.611Z,17.32
2022-11-08T03:46:34.419Z,17.23
2022-11-08T03:49:08.111Z,15.05
2022-11-08T03:51:41.949Z,17.27
2022-11-08T03:54:16.069Z,17.40
2022-11-08T03:56:50.122Z,15.45
2022-11-08T03:59:23.873Z,16.95
2022-11-08T04:01:57.831Z,17.62
2022-11-08T04:04:31.727Z,15.23
2022-11-08T04:07:05.442Z,12.70
2022-11-08T04:09:38.718Z,11.70
2022-11-08T04:12:49.646Z,17.00
2022-11-08T04:18:21.440Z,14.87
2022-11-08T04:21:13.004Z,15.58
2022-11-08T04:23:46.859Z,13.35
2022-11-08T04:26:20.946Z,12.05
2022-11-08T04:28:54.435Z,10.15
2022-11-08T04:31:29.542Z,16.87
2022-11-08T04:34:03.382Z,13.90
2022-11-08T04:36:37.107Z,11.43
2022-11-08T04:39:10.537Z,16.55
2022-11-08T04:41:43.674Z,14.03
2022-11-08T04:44:18.536Z,10.53
2022-11-08T04:46:51.933Z,8.48
2022-11-08T04:49:25.299Z,13.08
2022-11-08T04:51:58.525Z,13.83
2022-11-08T04:54:31.762Z,15.05
2022-11-08T04:57:05.344Z,13.55
2022-11-08T04:59:39.460Z,10.45
2022-11-08T05:02:13.032Z,15.28
2022-11-08T05:04:46.407Z,14.30
2022-11-08T05:07:20.555Z,14.28
2022-11-08T05:09:57.750Z,14.07
2022-11-08T05:12:29.195Z,11.12
2022-11-08T05:15:02.705Z,10.48
2022-11-08T05:17:36.065Z,14.65
2022-11-08T05:20:30.190Z,12.10
2022-11-08T05:23:25.069Z,15.68
2022-11-08T05:25:59.211Z,13.20
2022-11-08T05:28:32.768Z,17.17
2022-11-08T05:31:06.952Z,10.93
2022-11-08T05:33:40.571Z,17.15
2022-11-08T05:36:16.919Z,16.45
2022-11-08T05:38:50.139Z,13.05
2022-11-08T05:41:25.719Z,13.35
2022-11-08T05:43:59.305Z,9.15
2022-11-08T05:46:32.811Z,11.08
2022-11-08T05:49:06.276Z,11.68
2022-11-08T05:51:39.414Z,8.35
2022-11-08T05:54:13.262Z,11.70
2022-11-08T05:56:46.793Z,9.40
2022-11-08T05:59:20.251Z,9.50
2022-11-08T06:01:53.738Z,10.95
2022-11-08T06:04:27.228Z,9.88
2022-11-08T06:07:00.726Z,9.78
2022-11-08T06:09:34.480Z,8.55
2022-11-08T06:12:09.430Z,7.62
2022-11-08T06:14:43.024Z,6.42
2022-11-08T06:17:16.969Z,10.43
2022-11-08T06:19:50.165Z,7.67
2022-11-08T06:22:23.816Z,11.78
2022-11-08T06:24:57.047Z,9.85
2022-11-08T06:27:31.076Z,7.25
2022-11-08T06:30:04.292Z,6.70
2022-11-08T06:32:37.714Z,7.33
2022-11-08T06:35:12.160Z,9.30
2022-11-08T06:37:45.211Z,8.88
2022-11-08T06:40:18.831Z,7.58
2022-11-08T06:42:53.585Z,8.88
2022-11-08T06:45:26.931Z,8.05
2022-11-08T06:48:01.771Z,7.92
2022-11-08T06:50:36.059Z,10.43
2022-11-08T06:53:11.999Z,8.60
2022-11-08T06:55:45.584Z,9.40
2022-11-08T06:58:18.897Z,9.65
2022-11-08T07:00:52.504Z,9.68
2022-11-08T07:03:26.005Z,10.28
2022-11-08T07:05:59.514Z,8.15
2022-11-08T07:08:32.900Z,8.80
2022-11-08T07:11:07.530Z,9.60
2022-11-08T07:13:40.884Z,7.80
2022-11-08T07:16:14.714Z,10.98
2022-11-08T07:18:48.100Z,9.13
2022-11-08T07:21:21.243Z,8.80
2022-11-08T07:23:54.641Z,8.53
2022-11-08T07:26:28.439Z,7.95
2022-11-08T07:29:01.919Z,10.05
2022-11-08T07:31:35.471Z,7.87
2022-11-08T07:34:08.733Z,10.05
2022-11-08T07:36:42.268Z,10.85
2022-11-08T07:39:15.947Z,10.40
2022-11-08T07:41:50.999Z,11.08
2022-11-08T07:44:24.649Z,12.30
2022-11-08T07:46:59.324Z,12.98
2022-11-08T07:49:33.019Z,10.05
2022-11-08T07:52:07.247Z,9.88
2022-11-08T07:54:40.713Z,7.62
2022-11-08T07:57:14.237Z,11.25
2022-11-08T07:59:48.355Z,12.43
2022-11-08T08:02:22.049Z,11.10
2022-11-08T08:04:55.632Z,10.28
2022-11-08T08:07:29.120Z,8.48
2022-11-08T08:10:02.795Z,13.35
2022-11-08T08:12:36.376Z,14.53
2022-11-08T08:15:11.813Z,12.50
2022-11-08T08:17:45.185Z,11.20
2022-11-08T08:20:19.575Z,13.08
2022-11-08T08:22:53.631Z,12.18
2022-11-08T08:25:27.952Z,12.55
2022-11-08T08:28:02.697Z,11.20
2022-11-08T08:30:36.984Z,12.70
2022-11-08T08:33:34.085Z,10.00
2022-11-08T08:35:47.754Z,14.83
2022-11-08T08:38:21.113Z,10.93
2022-11-08T08:40:54.820Z,12.10
2022-11-08T08:43:28.651Z,13.40
2022-11-08T08:46:03.023Z,14.38
2022-11-08T08:48:38.592Z,13.53
2022-11-08T08:51:11.997Z,11.48
2022-11-08T08:53:45.475Z,15.10
2022-11-08T08:56:18.616Z,13.98
2022-11-08T09:04:03.052Z,14.20
2022-11-08T09:06:36.674Z,14.38
2022-11-08T09:09:09.965Z,11.33
2022-11-08T09:11:43.039Z,13.53
2022-11-08T09:14:16.118Z,12.47
2022-11-08T09:16:49.442Z,13.68
2022-11-08T09:19:22.813Z,11.20
2022-11-08T09:21:55.902Z,14.43
2022-11-08T09:24:29.450Z,10.78
2022-11-08T09:27:03.852Z,13.30
2022-11-08T09:29:37.506Z,12.35
2022-11-08T09:32:11.288Z,12.75
2022-11-08T09:34:44.412Z,12.10
2022-11-08T09:37:17.840Z,12.37
2022-11-08T09:39:51.651Z,15.43
2022-11-08T09:42:56.223Z,10.80
2022-11-08T09:45:32.537Z,11.38
2022-11-08T09:48:09.103Z,11.05
2022-11-08T09:53:31.805Z,12.43
2022-11-08T09:56:09.237Z,9.03
2022-11-08T09:58:45.401Z,10.53
2022-11-08T10:01:22.228Z,11.28
2022-11-08T10:03:57.132Z,12.35
2022-11-08T10:06:56.880Z,11.33
2022-11-08T10:09:34.719Z,10.48
2022-11-08T10:12:15.177Z,12.00
2022-11-08T10:14:59.229Z,10.23
2022-11-08T10:17:38.313Z,10.80
2022-11-08T10:20:19.231Z,9.03
2022-11-08T10:22:56.340Z,8.15
2022-11-08T10:25:33.737Z,8.40
2022-11-08T10:28:08.959Z,11.68
2022-11-08T10:30:45.276Z,11.93
2022-11-08T10:33:21.929Z,12.75
2022-11-08T10:36:02.149Z,9.85
2022-11-08T10:38:38.862Z,9.25
2022-11-08T10:41:17.034Z,7.85
2022-11-08T10:43:53.106Z,9.55
2022-11-08T10:49:27.998Z,8.33
2022-11-08T10:52:06.001Z,9.38
2022-11-08T10:54:51.107Z,8.23
2022-11-08T10:57:32.480Z,8.03
2022-11-08T11:00:23.907Z,8.10
2022-11-08T11:02:59.475Z,7.58
2022-11-08T11:05:35.684Z,8.55
2022-11-08T11:08:19.285Z,9.10
2022-11-08T11:10:52.824Z,7.47
2022-11-08T11:16:04.020Z,6.35
2022-11-08T11:18:39.676Z,8.00
2022-11-08T11:21:15.700Z,8.78
2022-11-08T11:23:51.585Z,8.40
2022-11-08T11:26:34.390Z,8.28
2022-11-08T11:29:26.663Z,7.05
2022-11-08T11:32:01.803Z,6.67
2022-11-08T11:34:47.079Z,6.30
2022-11-08T11:37:29.363Z,7.78
2022-11-08T11:40:08.910Z,5.90
2022-11-08T11:42:47.110Z,8.08
2022-11-08T11:45:23.856Z,8.03
2022-11-08T11:47:59.848Z,8.53
2022-11-08T11:50:35.921Z,6.55
2022-11-08T11:53:14.763Z,7.10
2022-11-08T11:56:15.198Z,8.60
2022-11-08T11:59:11.864Z,5.87
2022-11-08T12:02:02.362Z,7.50
2022-11-08T12:04:44.471Z,5.47
2022-11-08T12:07:21.671Z,9.78
2022-11-08T12:10:02.929Z,8.43
2022-11-08T12:12:45.763Z,8.58
2022-11-08T12:15:23.987Z,7.55
2022-11-08T12:18:07.358Z,8.35
2022-11-08T12:20:47.772Z,8.05
2022-11-08T12:23:35.422Z,9.03
2022-11-08T12:26:13.120Z,7.50
2022-11-08T12:31:29.262Z,7.05
2022-11-08T12:34:10.923Z,6.95
2022-11-08T12:36:48.761Z,6.37
2022-11-08T12:39:28.910Z,8.50
2022-11-08T12:42:12.057Z,7.75
2022-11-08T12:45:07.910Z,8.03
2022-11-08T12:47:44.221Z,6.50
2022-11-08T12:50:25.456Z,5.08
2022-11-08T12:53:11.084Z,7.75
2022-11-08T12:55:47.286Z,6.55
2022-11-08T12:58:33.098Z,6.65
2022-11-08T13:01:07.094Z,5.25
2022-11-08T13:04:07.137Z,5.53
2022-11-08T13:06:45.542Z,5.60
2022-11-08T13:09:24.122Z,6.42
2022-11-08T13:12:02.554Z,5.47
2022-11-08T13:14:41.118Z,3.92
2022-11-08T13:17:24.957Z,7.80
2022-11-08T13:20:12.124Z,6.20
2022-11-08T13:23:00.168Z,5.97
2022-11-08T13:25:41.613Z,6.28
2022-11-08T13:31:51.814Z,8.37
2022-11-08T13:34:45.986Z,6.85
2022-11-08T13:37:51.077Z,8.63
2022-11-08T13:40:41.076Z,8.03
2022-11-08T13:43:27.670Z,5.72
2022-11-08T13:46:22.830Z,7.87
2022-11-08T13:49:16.590Z,7.50
2022-11-08T13:51:51.640Z,6.10
2022-11-08T13:54:53.452Z,4.70
2022-11-08T13:57:58.943Z,7.70
2022-11-08T14:00:47.554Z,8.18
2022-11-08T14:06:42.537Z,5.97
2022-11-08T14:09:20.849Z,8.27
2022-11-08T14:11:59.577Z,6.50
2022-11-08T14:14:42.248Z,6.17
2022-11-08T14:17:33.062Z,4.30
2022-11-08T14:20:28.681Z,4.97
2022-11-08T14:23:05.706Z,5.90
2022-11-08T14:25:41.002Z,5.10
2022-11-08T14:28:27.937Z,4.70
2022-11-08T14:31:02.663Z,5.97
2022-11-08T14:33:38.036Z,5.60
2022-11-08T14:36:16.261Z,6.55
2022-11-08T14:38:52.036Z,5.90
2022-11-08T14:41:28.270Z,5.12
2022-11-08T14:44:03.636Z,6.47
2022-11-08T14:46:39.547Z,6.20
2022-11-08T14:49:20.338Z,7.12
2022-11-08T14:52:08.524Z,5.45
2022-11-08T14:54:43.692Z,7.22
2022-11-08T15:00:33.316Z,10.82
2022-11-08T15:03:08.297Z,7.40
2022-11-08T15:05:43.179Z,7.60
2022-11-08T15:08:23.382Z,6.45
2022-11-08T15:11:02.819Z,7.30
2022-11-08T15:13:41.735Z,6.55
2022-11-08T15:16:16.316Z,8.40
2022-11-08T15:18:49.815Z,7.50
2022-11-08T15:21:31.338Z,7.25
2022-11-08T15:24:17.017Z,5.72
2022-11-08T15:27:14.968Z,6.17
2022-11-08T15:29:57.110Z,5.67
2022-11-08T15:32:32.333Z,5.58
2022-11-08T15:35:07.270Z,7.33
2022-11-08T15:37:42.704Z,6.10
2022-11-08T15:40:22.547Z,5.50
2022-11-08T15:42:56.062Z,6.45
2022-11-08T15:45:32.360Z,6.67
2022-11-08T15:48:16.237Z,7.30
2022-11-08T15:50:50.378Z,6.67
2022-11-08T15:53:26.198Z,5.90
2022-11-08T15:56:02.128Z,7.08
2022-11-08T15:58:37.948Z,5.75
2022-11-08T16:01:20.144Z,7.45
2022-11-08T16:03:54.564Z,6.70
2022-11-08T16:06:28.702Z,6.72
2022-11-08T16:09:02.958Z,7.55
2022-11-08T16:11:39.425Z,7.35
2022-11-08T16:14:18.173Z,7.33
2022-11-08T16:19:26.733Z,8.45
2022-11-08T16:22:02.696Z,6.30
2022-11-08T16:24:37.749Z,7.05
2022-11-08T16:27:14.815Z,8.73
2022-11-08T16:29:50.210Z,7.45
2022-11-08T16:32:24.921Z,7.20
2022-11-08T16:35:00.158Z,7.67
2022-11-08T16:37:37.825Z,7.47
2022-11-08T16:40:19.940Z,11.05
2022-11-08T16:42:55.399Z,8.40
2022-11-08T16:45:58.362Z,5.70
2022-11-08T16:48:05.992Z,8.83
2022-11-08T16:50:40.520Z,6.33
2022-11-08T16:53:18.430Z,9.38
2022-11-08T16:58:25.217Z,8.15
2022-11-08T17:00:59.807Z,8.88
2022-11-08T17:03:33.760Z,10.13
2022-11-08T17:06:08.185Z,10.05
2022-11-08T17:08:42.161Z,7.37
2022-11-08T17:11:18.580Z,8.20
2022-11-08T17:13:53.637Z,7.42
2022-11-08T17:16:28.205Z,7.30
2022-11-08T17:19:01.963Z,8.28
2022-11-08T17:21:45.232Z,8.58
2022-11-08T17:24:16.987Z,6.72
2022-11-08T17:26:48.162Z,7.35
2022-11-08T17:29:22.439Z,8.58
2022-11-08T17:31:56.589Z,8.38
2022-11-08T17:34:31.075Z,8.95
2022-11-08T17:37:05.199Z,8.90
2022-11-08T17:39:39.166Z,7.60
2022-11-08T17:42:13.001Z,5.97
2022-11-08T17:44:46.727Z,8.75
2022-11-08T17:47:20.405Z,6.85
2022-11-08T17:49:54.202Z,9.30
2022-11-08T17:52:28.084Z,8.63
2022-11-08T17:55:01.358Z,10.03
2022-11-08T17:57:35.989Z,9.93
2022-11-08T18:00:12.015Z,10.80
2022-11-08T18:02:48.341Z,9.40
2022-11-08T18:05:22.020Z,9.90
2022-11-08T18:07:56.837Z,10.35
2022-11-08T18:10:30.520Z,7.78
2022-11-08T18:13:04.028Z,9.60
2022-11-08T18:15:37.353Z,10.45
2022-11-08T18:18:10.700Z,10.50
2022-11-08T18:20:44.240Z,11.78
2022-11-08T18:23:19.406Z,12.03
2022-11-08T18:25:55.674Z,12.03
2022-11-08T18:28:30.252Z,14.45
2022-11-08T18:31:08.403Z,12.13
2022-11-08T18:33:42.351Z,12.47
2022-11-08T18:36:18.077Z,12.73
2022-11-08T18:38:53.029Z,11.05
2022-11-08T18:41:28.921Z,12.50
2022-11-08T18:44:03.830Z,13.48
2022-11-08T18:46:41.937Z,13.08
2022-11-08T18:49:13.683Z,13.22
2022-11-08T18:51:49.161Z,15.50
2022-11-08T18:54:26.360Z,15.68
2022-11-08T18:57:00.090Z,14.28
2022-11-08T18:59:33.658Z,10.70
2022-11-08T19:02:07.601Z,12.47
2022-11-08T19:04:41.142Z,14.60
2022-11-08T19:07:14.928Z,13.28
2022-11-08T19:09:48.307Z,12.98
2022-11-08T19:12:22.093Z,14.05
2022-11-08T19:14:55.862Z,13.05
2022-11-08T19:17:30.927Z,14.40
2022-11-08T19:20:04.896Z,14.43
2022-11-08T19:22:38.439Z,15.15
2022-11-08T19:25:12.817Z,14.73
2022-11-08T19:27:46.651Z,13.48
2022-11-08T19:30:20.415Z,13.13
2022-11-08T19:32:54.005Z,13.10
2022-11-08T19:35:27.734Z,15.35
2022-11-08T19:38:02.861Z,15.40
2022-11-08T19:40:37.742Z,16.32
2022-11-08T19:43:11.035Z,13.60
2022-11-08T19:45:50.573Z,14.40
2022-11-08T19:48:19.900Z,12.45
2022-11-08T19:50:53.485Z,12.43
2022-11-08T19:53:27.103Z,17.37
2022-11-08T19:56:06.404Z,9.03
2022-11-08T19:58:40.270Z,15.70
2022-11-08T20:01:16.158Z,14.85
2022-11-08T20:03:50.600Z,16.30
2022-11-08T20:06:24.109Z,17.87
2022-11-08T20:08:58.323Z,15.90
2022-11-08T20:11:33.702Z,19.00
2022-11-08T20:14:08.524Z,18.23
2022-11-08T20:16:47.900Z,18.45
2022-11-08T20:19:19.717Z,14.60
2022-11-08T20:21:54.861Z,16.90
2022-11-08T20:24:28.358Z,11.95
2022-11-08T20:27:02.159Z,16.97
2022-11-08T20:29:36.079Z,15.00
2022-11-08T20:32:09.382Z,16.77
2022-11-08T20:34:42.966Z,18.37
2022-11-08T20:37:16.361Z,15.35
2022-11-08T20:39:50.129Z,16.97
2022-11-08T20:42:24.224Z,16.62
2022-11-08T20:44:57.979Z,19.87
2022-11-08T20:47:32.506Z,19.52
2022-11-08T20:50:06.190Z,17.48
2022-11-08T20:52:39.603Z,17.45
2022-11-08T20:55:13.698Z,18.30
2022-11-08T20:57:47.801Z,18.00
2022-11-08T21:00:38.031Z,11.63
2022-11-08T21:02:57.379Z,18.73
2022-11-08T21:05:30.860Z,16.82
2022-11-08T21:08:56.259Z,16.73
2022-11-08T21:10:43.268Z,17.05
2022-11-08T21:13:15.747Z,18.05
2022-11-08T21:15:49.844Z,13.85
2022-11-08T21:18:24.076Z,18.37
2022-11-08T21:21:05.804Z,16.75
2022-11-08T21:23:41.713Z,14.05
2022-11-08T21:26:16.301Z,16.85
2022-11-08T21:28:50.065Z,13.65
2022-11-08T21:31:24.141Z,19.37
2022-11-08T21:33:57.729Z,15.83
2022-11-08T21:36:31.142Z,19.35
2022-11-08T21:39:05.045Z,18.05
2022-11-08T21:41:38.662Z,16.57
2022-11-08T21:44:12.273Z,16.65
2022-11-08T21:46:45.923Z,18.12
2022-11-08T21:49:19.558Z,20.08
2022-11-08T21:51:53.271Z,14.70
2022-11-08T21:54:26.819Z,17.82
2022-11-08T21:57:00.272Z,13.68
2022-11-08T21:59:33.766Z,16.05
2022-11-08T22:02:07.617Z,13.80
2022-11-08T22:04:41.169Z,15.75
2022-11-08T22:07:14.727Z,16.17
2022-11-08T22:09:48.265Z,17.95
2022-11-08T22:12:21.870Z,17.52
2022-11-08T22:14:55.182Z,17.50
2022-11-08T22:17:29.678Z,20.12
2022-11-08T22:20:03.107Z,17.82
2022-11-08T22:22:35.691Z,16.67
2022-11-08T22:25:10.829Z,17.25
2022-11-08T22:27:44.058Z,19.42
2022-11-08T22:30:18.187Z,15.15
2022-11-08T22:32:51.739Z,15.65
2022-11-08T22:35:25.313Z,17.05
2022-11-08T22:37:58.719Z,16.45
2022-11-08T22:40:32.126Z,18.20
2022-11-08T22:43:05.717Z,16.45
2022-11-08T22:45:41.796Z,21.73
2022-11-08T22:48:15.604Z,20.10
2022-11-08T22:50:49.060Z,21.95
2022-11-08T22:53:22.693Z,19.98
2022-11-08T22:55:56.134Z,20.02
2022-11-08T22:58:30.013Z,19.77
2022-11-08T23:01:04.878Z,22.40
2022-11-08T23:03:38.489Z,16.48
2022-11-08T23:06:12.529Z,23.50
2022-11-08T23:08:47.820Z,21.70
2022-11-08T23:11:46.299Z,20.12
2022-11-08T23:14:37.971Z,19.55
2022-11-08T23:17:11.866Z,19.48
2022-11-08T23:20:03.994Z,25.30
2022-11-08T23:22:55.403Z,19.40
2022-11-08T23:25:28.909Z,26.07
2022-11-08T23:28:20.088Z,20.72
2022-11-08T23:31:11.609Z,23.65
2022-11-08T23:33:46.417Z,10.48
2022-11-08T23:36:20.618Z,20.15
2022-11-08T23:38:54.775Z,19.82
2022-11-08T23:41:46.059Z,14.58
2022-11-08T23:44:26.165Z,16.20
2022-11-08T23:47:01.088Z,21.07
2022-11-08T23:49:34.703Z,19.90
2022-11-08T23:52:08.708Z,16.30
2022-11-08T23:54:42.417Z,15.55
2022-11-08T23:57:16.030Z,15.28
2022-11-08T23:59:49.516Z,19.92
